createdAt,value
2022-09-15T00:02:07.657Z,2.38
2022-09-15T00:05:10.329Z,2.40
2022-09-15T00:08:12.900Z,2.20
2022-09-15T00:11:15.770Z,2.42
2022-09-15T00:14:18.712Z,2.30
2022-09-15T00:17:21.664Z,2.42
2022-09-15T00:20:24.907Z,2.35
2022-09-15T00:23:27.330Z,2.28
2022-09-15T00:26:29.922Z,2.15
2022-09-15T00:29:32.442Z,2.45
2022-09-15T00:32:34.812Z,1.95
2022-09-15T00:35:37.286Z,2.50
2022-09-15T00:38:40.069Z,2.42
2022-09-15T00:41:42.548Z,2.30
2022-09-15T00:44:46.023Z,2.20
2022-09-15T00:47:48.210Z,2.25
2022-09-15T00:50:50.772Z,2.33
2022-09-15T00:53:52.929Z,2.28
2022-09-15T00:56:55.502Z,2.22
2022-09-15T00:59:58.337Z,2.35
2022-09-15T01:03:01.155Z,2.38
2022-09-15T01:06:03.706Z,2.20
2022-09-15T01:09:06.388Z,1.95
2022-09-15T01:12:09.178Z,2.40
2022-09-15T01:15:12.188Z,2.40
2022-09-15T01:18:15.017Z,2.15
2022-09-15T01:21:17.648Z,2.03
2022-09-15T01:24:19.924Z,1.95
2022-09-15T01:27:41.112Z,2.30
2022-09-15T01:30:44.607Z,2.17
2022-09-15T01:33:47.833Z,2.10
2022-09-15T01:36:50.593Z,2.25
2022-09-15T01:39:53.060Z,2.22
2022-09-15T01:42:56.209Z,2.25
2022-09-15T01:45:59.037Z,2.10
2022-09-15T01:49:01.429Z,2.13
2022-09-15T01:52:04.247Z,2.15
2022-09-15T01:55:07.073Z,2.30
2022-09-15T01:58:10.055Z,2.30
2022-09-15T02:01:12.934Z,2.42
2022-09-15T02:04:15.839Z,2.40
2022-09-15T02:07:18.196Z,2.05
2022-09-15T02:10:20.629Z,2.40
2022-09-15T02:13:24.577Z,2.22
2022-09-15T02:16:27.484Z,2.20
2022-09-15T02:19:30.735Z,2.15
2022-09-15T02:22:34.046Z,2.10
2022-09-15T02:25:36.769Z,2.35
2022-09-15T02:28:39.451Z,2.35
2022-09-15T02:31:42.273Z,2.30
2022-09-15T02:34:44.475Z,2.00
2022-09-15T02:37:47.008Z,2.42
2022-09-15T02:40:49.729Z,2.40
2022-09-15T02:43:52.881Z,2.15
2022-09-15T02:46:56.070Z,2.00
2022-09-15T02:49:58.881Z,2.17
2022-09-15T02:53:01.028Z,2.20
2022-09-15T02:56:03.651Z,2.42
2022-09-15T02:59:06.661Z,2.10
2022-09-15T03:02:09.284Z,2.20
2022-09-15T03:05:11.836Z,2.08
2022-09-15T03:08:14.529Z,2.30
2022-09-15T03:11:17.469Z,2.00
2022-09-15T03:14:19.663Z,2.40
2022-09-15T03:17:22.685Z,2.28
2022-09-15T03:20:25.364Z,2.28
2022-09-15T03:23:28.269Z,2.28
2022-09-15T03:26:30.952Z,2.65
2022-09-15T03:29:33.596Z,2.70
2022-09-15T03:32:36.773Z,2.53
2022-09-15T03:35:39.868Z,2.50
2022-09-15T03:38:42.592Z,2.53
2022-09-15T03:41:45.071Z,2.60
2022-09-15T03:44:47.213Z,2.30
2022-09-15T03:47:49.579Z,2.83
2022-09-15T03:50:52.136Z,2.50
2022-09-15T03:53:55.384Z,3.45
2022-09-15T03:56:59.135Z,9.63
2022-09-15T04:00:02.524Z,22.65
2022-09-15T04:03:06.420Z,15.88
2022-09-15T04:06:09.260Z,18.92
2022-09-15T04:09:11.893Z,15.52
2022-09-15T04:12:14.803Z,15.50
2022-09-15T04:15:17.461Z,15.95
2022-09-15T04:18:19.865Z,14.40
2022-09-15T04:21:22.788Z,14.27
2022-09-15T04:24:25.634Z,14.05
2022-09-15T04:27:28.197Z,14.05
2022-09-15T04:30:30.812Z,13.75
2022-09-15T04:33:33.487Z,12.80
2022-09-15T04:36:36.109Z,13.10
2022-09-15T04:39:39.106Z,12.52
2022-09-15T04:42:42.297Z,11.80
2022-09-15T04:45:45.157Z,10.95
2022-09-15T04:48:48.058Z,10.70
2022-09-15T04:51:50.908Z,10.05
2022-09-15T04:54:53.784Z,9.98
2022-09-15T04:57:56.930Z,9.75
2022-09-15T05:01:00.207Z,9.38
2022-09-15T05:04:02.973Z,10.07
2022-09-15T05:07:05.767Z,9.48
2022-09-15T05:10:08.297Z,8.90
2022-09-15T05:13:11.143Z,8.48
2022-09-15T05:16:14.852Z,8.13
2022-09-15T05:19:17.306Z,8.18
2022-09-15T05:22:19.868Z,7.90
2022-09-15T05:25:22.436Z,7.18
2022-09-15T05:28:25.270Z,7.65
2022-09-15T05:31:28.463Z,7.32
2022-09-15T05:34:31.214Z,6.97
2022-09-15T05:37:34.087Z,7.43
2022-09-15T05:40:37.105Z,6.45
2022-09-15T05:43:40.298Z,6.70
2022-09-15T05:46:42.783Z,6.40
2022-09-15T05:49:46.027Z,6.75
2022-09-15T05:52:48.382Z,7.00
2022-09-15T05:55:50.890Z,6.28
2022-09-15T05:58:53.806Z,6.38
2022-09-15T06:01:56.612Z,5.70
2022-09-15T06:04:59.088Z,5.55
2022-09-15T06:08:01.937Z,5.32
2022-09-15T06:11:04.825Z,5.65
2022-09-15T06:14:07.277Z,5.43
2022-09-15T06:17:10.175Z,4.97
2022-09-15T06:20:12.588Z,5.03
2022-09-15T06:23:15.480Z,4.78
2022-09-15T06:26:18.747Z,4.57
2022-09-15T06:29:21.528Z,4.57
2022-09-15T06:32:23.641Z,4.90
2022-09-15T06:35:26.522Z,5.15
2022-09-15T06:38:29.254Z,4.30
2022-09-15T06:41:47.368Z,4.32
2022-09-15T06:44:53.467Z,4.72
2022-09-15T06:48:20.307Z,4.60
2022-09-15T06:51:17.628Z,4.30
2022-09-15T06:54:20.639Z,4.00
2022-09-15T06:57:23.480Z,4.22
2022-09-15T07:00:25.916Z,3.95
2022-09-15T07:03:28.820Z,3.90
2022-09-15T07:06:31.095Z,3.90
2022-09-15T07:09:33.959Z,3.63
2022-09-15T07:12:36.718Z,3.72
2022-09-15T07:15:39.253Z,3.40
2022-09-15T07:18:43.449Z,3.22
2022-09-15T07:21:45.405Z,3.70
2022-09-15T07:24:48.007Z,3.42
2022-09-15T07:27:50.652Z,2.92
2022-09-15T07:30:53.519Z,3.75
2022-09-15T07:33:55.662Z,3.05
2022-09-15T07:36:58.202Z,3.08
2022-09-15T07:40:01.144Z,2.75
2022-09-15T07:43:04.061Z,2.65
2022-09-15T07:46:06.703Z,3.05
2022-09-15T07:49:09.550Z,2.70
2022-09-15T07:52:13.146Z,3.17
2022-09-15T07:55:16.252Z,2.50
2022-09-15T07:58:19.109Z,2.40
2022-09-15T08:01:21.626Z,2.95
2022-09-15T08:04:24.770Z,2.70
2022-09-15T08:07:27.187Z,2.40
2022-09-15T08:10:29.308Z,2.58
2022-09-15T08:13:31.399Z,2.28
2022-09-15T08:16:33.644Z,2.20
2022-09-15T08:19:36.565Z,2.33
2022-09-15T08:22:39.709Z,2.15
2022-09-15T08:25:42.388Z,2.10
2022-09-15T08:28:45.257Z,2.40
2022-09-15T08:31:48.220Z,2.17
2022-09-15T08:34:50.812Z,1.95
2022-09-15T08:37:53.565Z,1.60
2022-09-15T08:40:56.763Z,1.95
2022-09-15T08:44:00.385Z,2.60
2022-09-15T08:47:03.725Z,2.33
2022-09-15T08:50:07.140Z,1.88
2022-09-15T08:53:09.229Z,2.10
2022-09-15T08:56:11.794Z,1.73
2022-09-15T08:59:14.711Z,1.75
2022-09-15T09:02:17.513Z,1.77
2022-09-15T09:05:20.952Z,1.80
2022-09-15T09:08:23.746Z,1.73
2022-09-15T09:11:25.849Z,1.58
2022-09-15T09:14:28.308Z,1.88
2022-09-15T09:17:31.080Z,1.75
2022-09-15T09:20:33.790Z,1.65
2022-09-15T09:23:36.278Z,1.77
2022-09-15T09:26:39.016Z,1.50
2022-09-15T09:29:41.498Z,1.33
2022-09-15T09:32:44.441Z,1.55
2022-09-15T09:35:46.827Z,1.23
2022-09-15T09:38:49.656Z,1.58
2022-09-15T09:41:51.982Z,1.30
2022-09-15T09:44:54.141Z,1.35
2022-09-15T09:48:01.354Z,1.42
2022-09-15T09:51:04.726Z,1.70
2022-09-15T09:54:08.120Z,1.27
2022-09-15T09:57:11.288Z,1.50
2022-09-15T10:00:14.092Z,1.20
2022-09-15T10:03:16.616Z,1.33
2022-09-15T10:06:18.891Z,1.10
2022-09-15T10:09:21.701Z,1.10
2022-09-15T10:12:24.193Z,1.25
2022-09-15T10:15:27.360Z,1.20
2022-09-15T10:18:30.227Z,1.25
2022-09-15T10:21:32.703Z,1.10
2022-09-15T10:24:35.900Z,1.10
2022-09-15T10:27:39.003Z,1.20
2022-09-15T10:30:41.422Z,1.13
2022-09-15T10:33:44.005Z,1.10
2022-09-15T10:36:46.884Z,1.33
2022-09-15T10:39:49.946Z,1.20
2022-09-15T10:42:52.364Z,1.00
2022-09-15T10:45:54.989Z,1.33
2022-09-15T10:48:57.425Z,1.17
2022-09-15T10:52:00.317Z,1.20
2022-09-15T10:55:03.127Z,1.17
2022-09-15T10:58:05.946Z,1.10
2022-09-15T11:01:09.169Z,1.00
2022-09-15T11:04:12.097Z,1.00
2022-09-15T11:07:14.474Z,1.05
2022-09-15T11:10:17.173Z,1.20
2022-09-15T11:13:20.179Z,1.10
2022-09-15T11:16:22.934Z,1.13
2022-09-15T11:19:25.548Z,1.10
2022-09-15T11:22:28.534Z,0.88
2022-09-15T11:25:31.497Z,0.80
2022-09-15T11:28:35.791Z,1.10
2022-09-15T11:31:39.210Z,1.08
2022-09-15T11:34:42.031Z,0.90
2022-09-15T11:37:45.653Z,1.10
2022-09-15T11:40:48.830Z,0.80
2022-09-15T11:43:52.035Z,1.05
2022-09-15T11:46:54.495Z,1.00
2022-09-15T11:49:56.661Z,0.75
2022-09-15T11:52:59.201Z,0.85
2022-09-15T11:56:02.425Z,0.70
2022-09-15T11:59:06.304Z,0.90
2022-09-15T12:02:08.880Z,1.10
2022-09-15T12:05:11.487Z,0.95
2022-09-15T12:08:13.697Z,0.90
2022-09-15T12:11:16.252Z,0.70
2022-09-15T12:14:18.874Z,0.88
2022-09-15T12:17:21.498Z,0.90
2022-09-15T12:20:24.114Z,0.80
2022-09-15T12:23:27.027Z,0.90
2022-09-15T12:26:29.466Z,0.80
2022-09-15T12:29:31.969Z,0.80
2022-09-15T12:32:34.395Z,1.10
2022-09-15T12:35:37.302Z,0.90
2022-09-15T12:38:40.211Z,0.90
2022-09-15T12:41:43.140Z,0.93
2022-09-15T12:44:45.992Z,0.73
2022-09-15T12:47:48.556Z,0.75
2022-09-15T12:50:51.165Z,0.73
2022-09-15T12:53:53.597Z,0.80
2022-09-15T12:56:56.252Z,0.90
2022-09-15T12:59:59.060Z,0.73
2022-09-15T13:03:01.691Z,0.85
2022-09-15T13:06:04.065Z,0.77
2022-09-15T13:09:06.736Z,0.60
2022-09-15T13:12:09.605Z,1.00
2022-09-15T13:15:12.954Z,0.88
2022-09-15T13:18:16.509Z,1.10
2022-09-15T13:21:19.740Z,0.77
2022-09-15T13:24:23.006Z,0.90
2022-09-15T13:27:25.582Z,0.98
2022-09-15T13:30:28.195Z,0.70
2022-09-15T13:40:16.356Z,0.80
2022-09-15T13:43:19.131Z,0.90
2022-09-15T13:46:21.452Z,0.70
2022-09-15T13:49:24.816Z,0.82
2022-09-15T13:52:26.933Z,0.85
2022-09-15T13:55:29.475Z,1.10
2022-09-15T14:01:54.381Z,0.73
2022-09-15T14:04:57.072Z,1.08
2022-09-15T14:08:01.256Z,0.80
2022-09-15T14:11:05.053Z,0.73
2022-09-15T14:14:07.612Z,0.63
2022-09-15T14:17:10.444Z,0.80
2022-09-15T14:20:13.300Z,0.80
2022-09-15T14:23:16.520Z,0.65
2022-09-15T14:26:19.185Z,0.60
2022-09-15T14:29:21.788Z,0.95
2022-09-15T14:32:23.875Z,1.00
2022-09-15T14:35:26.771Z,1.13
2022-09-15T14:38:29.852Z,0.80
2022-09-15T14:41:32.690Z,0.90
2022-09-15T14:47:58.017Z,0.88
2022-09-15T14:51:00.821Z,0.90
2022-09-15T14:54:03.632Z,0.82
2022-09-15T14:57:06.391Z,0.95
2022-09-15T15:00:09.231Z,1.10
2022-09-15T15:03:14.767Z,0.90
2022-09-15T15:06:35.629Z,0.85
2022-09-15T15:09:37.845Z,0.73
2022-09-15T15:12:40.398Z,0.82
2022-09-15T15:15:43.614Z,0.80
2022-09-15T15:18:46.720Z,0.85
2022-09-15T15:21:49.510Z,0.70
2022-09-15T15:24:52.109Z,0.70
2022-09-15T15:27:54.658Z,1.08
2022-09-15T15:30:56.778Z,1.00
2022-09-15T15:33:59.345Z,0.90
2022-09-15T15:37:02.697Z,0.93
2022-09-15T15:40:06.048Z,0.90
2022-09-15T15:43:09.519Z,0.70
2022-09-15T15:46:12.137Z,0.93
2022-09-15T15:49:15.096Z,0.60
2022-09-15T15:52:17.923Z,0.70
2022-09-15T15:55:20.348Z,0.80
2022-09-15T15:58:23.332Z,0.55
2022-09-15T16:01:26.741Z,0.90
2022-09-15T16:04:29.442Z,0.90
2022-09-15T16:07:33.414Z,1.30
2022-09-15T16:10:35.755Z,0.80
2022-09-15T16:13:39.046Z,0.90
2022-09-15T16:16:41.900Z,2.60
2022-09-15T16:19:45.409Z,10.27
2022-09-15T16:22:48.292Z,7.70
2022-09-15T16:25:51.150Z,7.05
2022-09-15T16:28:53.888Z,7.88
2022-09-15T16:31:57.022Z,6.50
2022-09-15T16:34:59.773Z,5.10
2022-09-15T16:38:02.556Z,5.60
2022-09-15T16:41:05.573Z,4.60
2022-09-15T16:44:08.782Z,4.25
2022-09-15T16:47:11.699Z,4.38
2022-09-15T16:50:14.520Z,3.80
2022-09-15T16:53:17.748Z,3.75
2022-09-15T16:56:20.178Z,3.55
2022-09-15T16:59:22.697Z,2.90
2022-09-15T17:02:25.392Z,2.67
2022-09-15T17:05:28.259Z,3.00
2022-09-15T17:08:31.123Z,2.15
2022-09-15T17:11:34.086Z,2.80
2022-09-15T17:14:36.768Z,2.45
2022-09-15T17:17:38.851Z,2.40
2022-09-15T17:20:41.304Z,2.40
2022-09-15T17:23:43.999Z,2.38
2022-09-15T17:26:46.761Z,2.03
2022-09-15T17:29:49.429Z,2.03
2022-09-15T17:32:51.894Z,2.10
2022-09-15T17:35:54.649Z,1.92
2022-09-15T17:38:56.825Z,1.83
2022-09-15T17:41:59.016Z,1.77
2022-09-15T17:45:01.920Z,1.65
2022-09-15T17:48:04.332Z,1.98
2022-09-15T17:51:07.223Z,1.70
2022-09-15T17:54:10.082Z,1.55
2022-09-15T17:57:13.122Z,2.10
2022-09-15T18:00:15.932Z,1.80
2022-09-15T18:03:18.911Z,1.52
2022-09-15T18:06:22.144Z,1.50
2022-09-15T18:09:24.900Z,1.95
2022-09-15T18:12:28.138Z,1.60
2022-09-15T18:15:31.930Z,1.60
2022-09-15T18:18:34.808Z,1.40
2022-09-15T18:21:37.306Z,1.40
2022-09-15T18:24:40.508Z,1.40
2022-09-15T18:27:42.973Z,1.13
2022-09-15T18:30:45.482Z,1.40
2022-09-15T18:33:48.373Z,1.30
2022-09-15T18:36:51.519Z,1.52
2022-09-15T18:39:54.333Z,1.27
2022-09-15T18:42:56.965Z,1.20
2022-09-15T18:45:59.810Z,1.10
2022-09-15T18:49:03.026Z,1.30
2022-09-15T18:52:05.586Z,1.20
2022-09-15T18:55:08.029Z,1.02
2022-09-15T18:58:10.840Z,1.23
2022-09-15T19:01:13.074Z,1.00
2022-09-15T19:04:16.057Z,0.90
2022-09-15T19:07:18.740Z,1.10
2022-09-15T19:10:21.633Z,0.95
2022-09-15T19:13:24.519Z,0.95
2022-09-15T19:16:46.808Z,0.68
2022-09-15T19:19:50.142Z,1.10
2022-09-15T19:22:52.864Z,1.00
2022-09-15T19:25:56.233Z,1.00
2022-09-15T19:28:59.681Z,1.20
2022-09-15T19:32:01.778Z,1.00
2022-09-15T19:35:04.259Z,1.02
2022-09-15T19:38:07.426Z,0.90
2022-09-15T19:41:09.849Z,0.82
2022-09-15T19:44:12.578Z,0.73
2022-09-15T19:47:15.463Z,0.80
2022-09-15T19:50:18.433Z,0.77
2022-09-15T19:53:21.603Z,0.80
2022-09-15T19:56:23.934Z,0.68
2022-09-15T19:59:31.040Z,0.70
2022-09-15T20:02:34.463Z,0.68
2022-09-15T20:05:37.154Z,0.73
2022-09-15T20:08:39.925Z,0.73
2022-09-15T20:11:43.072Z,0.65
2022-09-15T20:14:45.853Z,0.70
2022-09-15T20:17:48.651Z,0.70
2022-09-15T20:20:51.095Z,0.70
2022-09-15T20:23:54.264Z,0.80
2022-09-15T20:26:56.983Z,0.70
2022-09-15T20:30:00.128Z,0.70
2022-09-15T20:33:02.529Z,0.70
2022-09-15T20:36:05.045Z,0.55
2022-09-15T20:39:07.494Z,0.85
2022-09-15T20:42:10.461Z,0.88
2022-09-15T20:45:13.252Z,0.60
2022-09-15T20:48:16.232Z,0.90
2022-09-15T20:51:18.743Z,0.70
2022-09-15T20:54:21.215Z,0.60
2022-09-15T20:57:24.347Z,0.77
2022-09-15T21:00:30.642Z,0.60
2022-09-15T21:03:36.576Z,0.80
2022-09-15T21:06:39.766Z,0.75
2022-09-15T21:09:42.597Z,0.68
2022-09-15T21:12:45.256Z,0.63
2022-09-15T21:15:47.786Z,0.70
2022-09-15T21:18:50.030Z,0.60
2022-09-15T21:21:52.962Z,0.60
2022-09-15T21:24:55.773Z,0.60
2022-09-15T21:27:57.976Z,0.80
2022-09-15T21:31:00.556Z,0.70
2022-09-15T21:34:03.411Z,0.50
2022-09-15T21:37:05.879Z,0.65
2022-09-15T21:40:08.865Z,0.52
2022-09-15T21:43:11.738Z,0.50
2022-09-15T21:46:14.766Z,0.70
2022-09-15T21:49:18.130Z,0.70
2022-09-15T21:52:20.689Z,0.50
2022-09-15T21:55:22.828Z,0.40
2022-09-15T21:58:26.153Z,0.57
2022-09-15T22:01:29.171Z,0.60
2022-09-15T22:04:32.174Z,0.47
2022-09-15T22:07:34.871Z,0.50
2022-09-15T22:10:37.257Z,0.88
2022-09-15T22:14:04.243Z,0.55
2022-09-15T22:17:07.103Z,0.60
2022-09-15T22:20:09.874Z,0.70
2022-09-15T22:23:12.537Z,0.68
2022-09-15T22:26:15.219Z,0.50
2022-09-15T22:29:18.212Z,0.65
2022-09-15T22:32:21.150Z,0.60
2022-09-15T22:35:23.295Z,0.50
2022-09-15T22:38:26.242Z,0.80
2022-09-15T22:41:29.148Z,0.57
2022-09-15T22:44:31.269Z,0.60
2022-09-15T22:47:33.800Z,0.60
2022-09-15T22:50:36.916Z,0.68
2022-09-15T22:53:40.532Z,0.70
2022-09-15T22:56:43.908Z,0.70
2022-09-15T22:59:46.763Z,0.70
2022-09-15T23:02:48.934Z,0.68
2022-09-15T23:05:51.801Z,0.68
2022-09-15T23:08:54.694Z,0.75
2022-09-15T23:11:57.308Z,0.70
2022-09-15T23:15:00.236Z,0.57
2022-09-15T23:18:03.525Z,0.50
2022-09-15T23:21:06.497Z,0.70
2022-09-15T23:24:08.848Z,0.77
2022-09-15T23:27:11.386Z,0.65
2022-09-15T23:30:13.755Z,0.70
2022-09-15T23:33:16.302Z,0.90
2022-09-15T23:36:18.453Z,0.70
2022-09-15T23:39:21.384Z,0.70
2022-09-15T23:42:24.153Z,0.90
2022-09-15T23:45:27.031Z,0.70
2022-09-15T23:48:29.829Z,0.80
2022-09-15T23:51:32.225Z,0.70
2022-09-15T23:54:34.987Z,0.60
2022-09-15T23:57:37.601Z,0.60
